Time;durP1;ratioP1;P1;durP2;ratioP2;P2;SDS_P1;SDS_P2;PMS_P1;PMS_P2;Temp;Humidity;BMP_temperature;BMP_pressure;BME280_temperature;BME280_humidity;BME280_pressure;Samples;Min_cycle;Max_cycle;Signal;HPM_P1;HPM_P2
2023/12/14 00:01:27;;;;;;;4.03;1.83;;;;;;;8.88;78.40;98524.66;5009700;28;20674;-77
2023/12/14 00:03:52;;;;;;;2.10;1.30;;;;;;;8.89;78.39;98520.28;5009648;28;20523;-78
2023/12/14 00:06:17;;;;;;;4.70;2.07;;;;;;;8.89;78.37;98536.00;5011026;28;20864;-77
2023/12/14 00:08:43;;;;;;;5.53;2.40;;;;;;;8.89;78.34;98536.84;5010973;28;20202;-77
2023/12/14 00:11:10;;;;;;;7.33;2.43;;;;;;;8.89;78.31;98538.63;5009912;28;20253;-77
2023/12/14 00:13:36;;;;;;;3.85;2.05;;;;;;;8.89;78.44;98539.44;5015515;28;20210;-77
2023/12/14 00:16:02;;;;;;;2.53;1.97;;;;;;;8.89;78.32;98544.69;5014595;28;20244;-76
2023/12/14 00:18:28;;;;;;;3.10;2.05;;;;;;;8.92;78.37;98549.69;5013399;28;21063;-77
2023/12/14 00:20:54;;;;;;;2.53;1.40;;;;;;;8.93;78.39;98553.97;5014545;28;20308;-77
2023/12/14 00:23:23;;;;;;;6.10;2.20;;;;;;;8.94;78.39;98562.66;5013895;28;20270;-77
2023/12/14 00:25:49;;;;;;;5.10;2.72;;;;;;;8.95;78.45;98562.56;5014639;28;20452;-77
2023/12/14 00:28:14;;;;;;;3.63;1.80;;;;;;;8.96;78.28;98564.22;5009286;28;20222;-77
2023/12/14 00:30:40;;;;;;;3.23;2.13;;;;;;;8.97;78.42;98565.91;5013719;28;20917;-77
2023/12/14 00:33:05;;;;;;;3.07;2.37;;;;;;;8.99;78.31;98569.25;5016982;28;20226;-77
2023/12/14 00:35:31;;;;;;;5.10;2.10;;;;;;;8.99;78.21;98571.88;5013432;28;20705;-76
2023/12/14 00:37:56;;;;;;;4.33;2.50;;;;;;;8.99;78.27;98571.88;5012976;28;20309;-77
2023/12/14 00:40:22;;;;;;;2.17;1.97;;;;;;;8.98;78.10;98567.56;5013839;28;20202;-77
2023/12/14 00:42:47;;;;;;;4.83;2.03;;;;;;;8.97;78.30;98572.94;5014228;28;20684;-77
2023/12/14 00:45:12;;;;;;;2.40;2.00;;;;;;;8.96;78.32;98579.09;5011538;28;20202;-77
2023/12/14 00:47:38;;;;;;;1.60;1.50;;;;;;;8.93;78.20;98580.16;5013089;28;20292;-77
2023/12/14 00:50:04;;;;;;;2.10;1.70;;;;;;;8.91;78.24;98579.47;5013759;28;20203;-77
2023/12/14 00:52:29;;;;;;;3.08;2.15;;;;;;;8.90;78.50;98580.41;5013299;28;20206;-77
2023/12/14 00:54:55;;;;;;;3.87;2.93;;;;;;;8.87;78.57;98591.09;5013837;28;20477;-77
2023/12/14 00:57:20;;;;;;;2.63;2.20;;;;;;;8.85;78.45;98596.44;5012288;28;20249;-77
2023/12/14 00:59:45;;;;;;;3.73;1.70;;;;;;;8.83;78.61;98600.09;5014750;28;20187;-78
2023/12/14 01:02:11;;;;;;;3.10;2.10;;;;;;;8.81;78.64;98591.56;5014110;28;20752;-77
2023/12/14 01:04:37;;;;;;;2.80;2.20;;;;;;;8.80;78.22;98603.81;5011017;28;20205;-77
2023/12/14 01:07:03;;;;;;;2.90;1.87;;;;;;;8.78;78.61;98602.25;5013608;28;20213;-77
2023/12/14 01:09:29;;;;;;;2.45;2.00;;;;;;;8.78;78.60;98616.16;5012936;28;20198;-77
2023/12/14 01:11:54;;;;;;;1.93;1.63;;;;;;;8.76;78.67;98618.06;5013639;28;20236;-77
2023/12/14 01:14:19;;;;;;;5.33;2.50;;;;;;;8.77;78.67;98622.34;5013515;28;20584;-77
2023/12/14 01:16:45;;;;;;;2.87;2.10;;;;;;;8.78;78.62;98629.25;5006429;28;22163;-77
2023/12/14 01:19:10;;;;;;;3.40;2.37;;;;;;;8.78;78.56;98631.88;5012071;28;20566;-76
2023/12/14 01:21:36;;;;;;;2.30;2.10;;;;;;;8.79;78.64;98635.34;5012933;28;20259;-77
2023/12/14 01:24:01;;;;;;;4.90;2.20;;;;;;;8.79;78.54;98641.41;5008656;28;20687;-77
2023/12/14 01:26:27;;;;;;;3.40;2.53;;;;;;;8.79;78.69;98641.41;5011824;28;20245;-77
2023/12/14 01:28:53;;;;;;;3.40;2.30;;;;;;;8.79;78.63;98657.09;5013435;28;20226;-77
2023/12/14 01:31:19;;;;;;;2.72;2.05;;;;;;;8.79;78.77;98658.91;5013179;28;20306;-77
2023/12/14 01:33:45;;;;;;;3.10;2.17;;;;;;;8.80;78.83;98653.56;5012598;28;20281;-77
2023/12/14 01:36:11;;;;;;;3.08;2.45;;;;;;;8.80;78.87;98650.09;5009151;28;20619;-77
2023/12/14 01:38:37;;;;;;;2.53;2.33;;;;;;;8.81;78.70;98670.94;5012493;28;20190;-77
2023/12/14 01:41:02;;;;;;;3.90;2.70;;;;;;;8.83;78.79;98669.06;5011689;28;20836;-77
2023/12/14 01:43:28;;;;;;;2.60;2.37;;;;;;;8.82;78.65;98677.00;5012234;28;20202;-76
2023/12/14 01:45:53;;;;;;;3.10;2.40;;;;;;;8.79;78.52;98675.44;5011817;28;20316;-77
2023/12/14 01:48:19;;;;;;;5.27;3.20;;;;;;;8.80;78.51;98678.88;5012678;28;20210;-77
2023/12/14 01:50:44;;;;;;;4.43;3.33;;;;;;;8.78;78.66;98688.66;5010781;28;20799;-77
2023/12/14 01:53:09;;;;;;;3.07;2.40;;;;;;;8.77;78.72;98693.03;5011073;28;20211;-76
2023/12/14 01:55:35;;;;;;;2.93;2.60;;;;;;;8.77;78.62;98700.88;5011545;28;20293;-77
2023/12/14 01:58:00;;;;;;;5.40;2.43;;;;;;;8.78;78.66;98702.56;5012347;28;20206;-77
2023/12/14 02:01:00;;;;;;;2.90;2.07;;;;;;;8.79;78.64;98717.34;5010846;28;20544;-77
2023/12/14 02:03:25;;;;;;;4.68;3.05;;;;;;;8.76;78.57;98714.09;5012449;28;20203;-77
2023/12/14 02:05:51;;;;;;;3.43;2.30;;;;;;;8.76;78.67;98728.03;5012341;28;20732;-77
2023/12/14 02:08:16;;;;;;;4.27;2.00;;;;;;;8.76;78.76;98724.56;5008771;28;20341;-76
2023/12/14 02:10:42;;;;;;;3.10;2.20;;;;;;;8.76;78.92;98729.81;5011594;28;20211;-77
2023/12/14 02:13:07;;;;;;;2.43;2.23;;;;;;;8.76;78.97;98729.81;5013575;28;20966;-77
2023/12/14 02:15:33;;;;;;;3.10;2.80;;;;;;;8.78;78.68;98738.41;5012800;28;20670;-77
2023/12/14 02:17:58;;;;;;;3.77;2.27;;;;;;;8.78;78.79;98730.56;5007157;28;20233;-77
2023/12/14 02:20:23;;;;;;;2.90;2.53;;;;;;;8.78;78.68;98730.56;5011579;28;20224;-77
2023/12/14 02:22:53;;;;;;;3.20;2.47;;;;;;;8.76;78.71;98729.81;5011628;28;20237;-77
2023/12/14 02:25:19;;;;;;;3.67;2.75;;;;;;;8.74;78.61;98726.47;5011940;28;20203;-76
2023/12/14 02:27:45;;;;;;;3.08;2.67;;;;;;;8.72;78.80;98723.97;5008945;28;20280;-77
2023/12/14 02:30:12;;;;;;;2.43;2.20;;;;;;;8.70;78.77;98730.25;5011655;28;20206;-77
2023/12/14 02:32:38;;;;;;;4.95;2.58;;;;;;;8.66;78.98;98740.06;5011026;28;20448;-77
2023/12/14 02:35:04;;;;;;;4.18;2.83;;;;;;;8.62;79.22;98734.22;5008900;28;20213;-77
2023/12/14 02:37:29;;;;;;;5.50;2.67;;;;;;;8.60;79.21;98730.88;5011072;28;20622;-76
2023/12/14 02:39:55;;;;;;;4.20;2.50;;;;;;;8.60;79.08;98745.75;5010010;28;20195;-77
2023/12/14 02:42:20;;;;;;;4.03;2.63;;;;;;;8.57;79.12;98744.19;5012432;28;20414;-77
2023/12/14 02:44:46;;;;;;;2.70;2.50;;;;;;;8.56;79.30;98744.28;5009962;28;20659;-77
2023/12/14 02:47:11;;;;;;;2.33;1.80;;;;;;;8.54;79.54;98744.41;5011204;28;20218;-81
2023/12/14 02:49:37;;;;;;;6.83;3.00;;;;;;;8.53;79.42;98747.97;5011434;28;20194;-77
2023/12/14 02:52:02;;;;;;;3.07;2.73;;;;;;;8.53;79.39;98752.34;5012125;28;20210;-77
2023/12/14 02:54:28;;;;;;;2.90;2.50;;;;;;;8.51;79.38;98760.31;5008445;28;20203;-76
2023/12/14 02:56:53;;;;;;;2.50;1.87;;;;;;;8.50;79.34;98761.25;5011356;28;20210;-77
2023/12/14 02:59:19;;;;;;;3.37;2.43;;;;;;;8.49;79.38;98763.97;5011123;28;20280;-77
2023/12/14 03:01:44;;;;;;;3.90;2.63;;;;;;;8.47;79.47;98764.06;5010371;28;20360;-77
2023/12/14 03:04:10;;;;;;;3.50;2.40;;;;;;;8.47;79.61;98765.84;5009379;28;20293;-77
2023/12/14 03:06:35;;;;;;;2.70;2.20;;;;;;;8.44;79.58;98772.13;5010085;28;20206;-77
2023/12/14 03:09:00;;;;;;;5.10;3.10;;;;;;;8.47;79.82;98774.53;5007371;28;20449;-77
2023/12/14 03:11:26;;;;;;;4.10;2.87;;;;;;;8.48;79.98;98778.84;5009643;28;20213;-77
2023/12/14 03:13:51;;;;;;;4.47;2.70;;;;;;;8.48;80.00;98773.63;5012443;28;20199;-77
2023/12/14 03:16:18;;;;;;;3.83;2.40;;;;;;;8.49;79.95;98772.66;5011401;28;20198;-77
2023/12/14 03:18:43;;;;;;;4.25;2.35;;;;;;;8.48;79.97;98773.63;5009811;28;20209;-77
2023/12/14 03:21:09;;;;;;;3.57;2.90;;;;;;;8.52;80.09;98779.47;5009319;28;20232;-77
2023/12/14 03:23:35;;;;;;;2.75;2.17;;;;;;;8.54;79.84;98783.66;5011094;28;20296;-77
2023/12/14 03:26:01;;;;;;;3.03;2.53;;;;;;;8.56;79.72;98789.63;5009926;28;20329;-77
2023/12/14 03:28:27;;;;;;;6.33;2.53;;;;;;;8.56;79.78;98788.78;5010391;28;20535;-75
2023/12/14 03:30:52;;;;;;;3.73;2.67;;;;;;;8.57;79.73;98796.53;5010006;28;20532;-75
2023/12/14 03:33:18;;;;;;;3.10;1.93;;;;;;;8.57;79.55;98812.22;5010955;28;20984;-75
2023/12/14 03:35:44;;;;;;;3.17;2.33;;;;;;;8.58;79.61;98806.03;5008707;28;20457;-75
2023/12/14 03:38:09;;;;;;;4.30;2.23;;;;;;;8.60;79.62;98811.19;5011087;28;20202;-75
2023/12/14 03:40:35;;;;;;;3.50;2.63;;;;;;;8.62;79.56;98819.78;5009361;28;20341;-75
2023/12/14 03:43:03;;;;;;;4.67;2.80;;;;;;;8.63;79.63;98818.81;5010852;28;20212;-75
2023/12/14 03:45:28;;;;;;;3.67;2.13;;;;;;;8.63;79.42;98819.66;5007480;28;20199;-75
2023/12/14 03:47:54;;;;;;;4.93;2.13;;;;;;;8.66;79.47;98828.25;5009304;28;20236;-75
2023/12/14 03:50:19;;;;;;;2.80;2.37;;;;;;;8.66;79.41;98839.56;5006814;28;20573;-75
2023/12/14 03:52:44;;;;;;;3.73;2.30;;;;;;;8.67;79.38;98837.78;5008014;28;20194;-75
2023/12/14 03:55:10;;;;;;;2.00;1.90;;;;;;;8.67;79.35;98841.25;5009022;28;20233;-75
2023/12/14 03:57:35;;;;;;;2.77;2.50;;;;;;;8.67;79.61;98843.88;5009463;28;20198;-75
2023/12/14 04:00:01;;;;;;;3.50;2.70;;;;;;;8.68;79.39;98850.78;5010607;28;20198;-75
2023/12/14 04:02:26;;;;;;;2.47;2.20;;;;;;;8.69;79.40;98848.97;5008125;28;20268;-75
2023/12/14 04:04:52;;;;;;;2.37;2.17;;;;;;;8.70;79.46;98851.50;5004285;28;20561;-75
2023/12/14 04:07:17;;;;;;;3.30;1.90;;;;;;;8.72;79.46;98854.00;5009105;28;20678;-75
2023/12/14 04:09:44;;;;;;;8.03;2.30;;;;;;;8.73;79.39;98850.47;4991520;28;20243;-75
2023/12/14 04:12:09;;;;;;;3.80;2.30;;;;;;;8.72;79.30;98856.63;5008835;28;20195;-75
2023/12/14 04:14:35;;;;;;;2.70;2.50;;;;;;;8.71;79.24;98861.03;5010460;28;20213;-74
2023/12/14 04:17:00;;;;;;;2.47;2.00;;;;;;;8.72;79.23;98869.72;5008660;28;20210;-74
2023/12/14 04:19:25;;;;;;;3.60;2.07;;;;;;;8.72;79.36;98881.06;5009895;28;20198;-74
2023/12/14 04:21:51;;;;;;;2.67;2.30;;;;;;;8.73;79.37;98889.75;5008887;28;20194;-74
2023/12/14 04:24:16;;;;;;;3.63;2.57;;;;;;;8.72;79.35;98901.13;5007625;28;20855;-74
2023/12/14 04:26:42;;;;;;;2.53;2.30;;;;;;;8.72;79.29;98906.38;5010723;28;20544;-73
2023/12/14 04:29:07;;;;;;;2.60;2.17;;;;;;;8.71;79.49;98900.31;5009797;28;20872;-74
2023/12/14 04:31:34;;;;;;;4.07;2.23;;;;;;;8.70;79.27;98898.66;5011120;28;20241;-74
2023/12/14 04:33:59;;;;;;;6.43;2.22;;;;;;;8.69;79.31;98911.81;5002622;28;20194;-74
2023/12/14 04:36:25;;;;;;;2.60;2.30;;;;;;;8.69;79.35;98911.81;5002373;28;20214;-74
2023/12/14 04:38:50;;;;;;;2.50;2.17;;;;;;;8.68;79.47;98912.78;5006041;28;20199;-75
2023/12/14 04:41:15;;;;;;;2.53;1.90;;;;;;;8.63;79.26;98919.13;5002087;28;20229;-74
2023/12/14 04:43:41;;;;;;;3.43;2.23;;;;;;;8.60;79.58;98916.72;5003478;28;20679;-74
2023/12/14 04:46:06;;;;;;;2.47;1.90;;;;;;;8.61;79.67;98926.28;5005973;28;20229;-74
2023/12/14 04:48:32;;;;;;;4.63;2.90;;;;;;;8.62;79.60;98927.13;5005508;28;20601;-74
2023/12/14 04:50:57;;;;;;;4.30;2.73;;;;;;;8.63;79.56;98929.63;5005719;28;20233;-74
2023/12/14 04:53:23;;;;;;;3.80;2.50;;;;;;;8.67;79.50;98926.78;5006647;28;20198;-74
2023/12/14 04:55:48;;;;;;;2.97;2.67;;;;;;;8.68;79.53;98942.41;5009337;28;20206;-74
2023/12/14 04:58:14;;;;;;;4.80;2.80;;;;;;;8.70;79.66;98947.56;5010292;28;20195;-75
2023/12/14 05:00:39;;;;;;;4.13;2.97;;;;;;;8.72;79.61;98945.66;5014390;28;20213;-74
2023/12/14 05:03:05;;;;;;;5.03;2.90;;;;;;;8.73;79.50;98945.56;5013560;28;20213;-74
2023/12/14 05:05:30;;;;;;;4.70;3.50;;;;;;;8.76;79.58;98952.38;5011733;28;20198;-74
2023/12/14 05:07:55;;;;;;;7.00;3.97;;;;;;;8.76;79.39;98955.00;5013438;28;20455;-74
2023/12/14 05:10:21;;;;;;;5.13;3.57;;;;;;;8.76;79.57;98961.06;5012729;28;20206;-74
2023/12/14 05:12:46;;;;;;;3.10;2.70;;;;;;;8.77;79.63;98967.13;5013980;28;20194;-74
2023/12/14 05:15:12;;;;;;;3.50;2.93;;;;;;;8.76;79.53;98971.53;5013175;28;20448;-74
2023/12/14 05:17:37;;;;;;;3.13;1.97;;;;;;;8.77;79.58;98981.06;5011163;28;20597;-74
2023/12/14 05:20:08;;;;;;;3.43;2.30;;;;;;;8.77;79.54;98980.22;5013329;28;20602;-74
2023/12/14 05:22:33;;;;;;;6.28;2.78;;;;;;;8.76;79.46;98982.00;5010634;28;20264;-74
2023/12/14 05:24:59;;;;;;;3.17;2.90;;;;;;;8.75;79.34;98992.56;5012223;28;20211;-74
2023/12/14 05:27:25;;;;;;;4.37;2.60;;;;;;;8.72;79.37;98996.25;5009244;28;20620;-74
2023/12/14 05:29:50;;;;;;;5.20;2.90;;;;;;;8.72;79.59;98998.88;5011911;28;21287;-74
2023/12/14 05:32:16;;;;;;;6.00;2.83;;;;;;;8.74;79.50;99001.38;5012385;28;20456;-74
2023/12/14 05:34:41;;;;;;;3.50;2.63;;;;;;;8.77;79.35;99003.78;5010563;28;20285;-74
2023/12/14 05:37:06;;;;;;;3.87;3.43;;;;;;;8.81;79.66;99007.91;5008939;28;20449;-74
2023/12/14 05:39:32;;;;;;;2.80;2.60;;;;;;;8.82;79.59;99013.03;5010560;28;20333;-74
2023/12/14 05:41:57;;;;;;;4.40;3.23;;;;;;;8.84;79.58;99015.56;4992926;28;20267;-74
2023/12/14 05:44:22;;;;;;;4.93;3.37;;;;;;;8.83;79.40;99022.56;5011187;28;20241;-73
2023/12/14 05:46:49;;;;;;;4.53;3.40;;;;;;;8.83;79.41;99034.81;5013339;28;20430;-74
2023/12/14 05:49:14;;;;;;;4.10;2.75;;;;;;;8.82;79.24;99038.38;5013795;28;20211;-74
2023/12/14 05:51:39;;;;;;;5.00;3.40;;;;;;;8.81;79.42;99034.09;5017587;28;20697;-75
2023/12/14 05:54:05;;;;;;;5.67;3.10;;;;;;;8.80;79.18;99037.63;5017144;28;20230;-75
2023/12/14 05:56:30;;;;;;;5.47;3.30;;;;;;;8.81;79.33;99052.41;5014732;28;20605;-75
2023/12/14 05:58:56;;;;;;;9.17;4.00;;;;;;;8.83;79.13;99056.63;5013243;28;20321;-75
2023/12/14 06:01:23;;;;;;;5.97;3.73;;;;;;;8.82;79.01;99052.31;5012635;28;20258;-75
2023/12/14 06:03:49;;;;;;;5.68;3.70;;;;;;;8.80;79.15;99062.06;5012634;28;20703;-75
2023/12/14 06:06:14;;;;;;;5.27;4.40;;;;;;;8.79;79.27;99062.16;5012818;28;20209;-74
2023/12/14 06:08:40;;;;;;;6.53;3.47;;;;;;;8.79;79.38;99070.84;5011390;28;20221;-74
2023/12/14 06:11:06;;;;;;;3.85;3.45;;;;;;;8.80;79.44;99071.66;5011230;28;20206;-73
2023/12/14 06:13:32;;;;;;;7.60;4.03;;;;;;;8.81;79.35;99076.00;4995785;28;20853;-74
2023/12/14 06:15:57;;;;;;;3.85;3.42;;;;;;;8.83;79.21;99087.19;5011498;28;20207;-74
2023/12/14 06:18:23;;;;;;;6.43;4.00;;;;;;;8.83;79.29;99081.94;5011452;28;20237;-74
2023/12/14 06:20:48;;;;;;;3.90;3.50;;;;;;;8.81;79.05;99092.53;5011727;28;20286;-74
2023/12/14 06:23:14;;;;;;;4.70;3.80;;;;;;;8.81;79.14;99089.91;5010318;28;20574;-74
2023/12/14 06:25:39;;;;;;;4.33;3.80;;;;;;;8.81;79.17;99096.94;5009989;28;20356;-75
2023/12/14 06:28:05;;;;;;;4.27;3.30;;;;;;;8.81;79.40;99099.56;5010805;28;20257;-75
2023/12/14 06:30:30;;;;;;;6.50;5.23;;;;;;;8.81;79.37;99110.03;5008821;28;21820;-75
2023/12/14 06:32:56;;;;;;;5.10;4.50;;;;;;;8.81;79.39;99120.50;5010118;28;20201;-73
2023/12/14 06:35:21;;;;;;;4.67;3.47;;;;;;;8.79;79.31;99112.72;5011027;28;20336;-74
2023/12/14 06:37:47;;;;;;;8.70;3.60;;;;;;;8.80;79.26;99122.28;5010237;28;20319;-73
2023/12/14 06:40:13;;;;;;;6.93;3.57;;;;;;;8.79;79.35;99127.63;5008450;28;20758;-74
2023/12/14 06:42:38;;;;;;;3.27;2.87;;;;;;;8.79;79.06;99131.06;5010814;28;20228;-74
2023/12/14 06:45:04;;;;;;;3.17;2.97;;;;;;;8.81;79.29;99136.22;5007901;28;20281;-75
2023/12/14 06:47:29;;;;;;;5.50;3.13;;;;;;;8.81;79.28;99131.81;5010588;28;20627;-74
2023/12/14 06:49:56;;;;;;;4.00;2.63;;;;;;;8.82;79.25;99133.50;5010299;28;20476;-74
2023/12/14 06:52:22;;;;;;;3.85;3.15;;;;;;;8.82;79.07;99148.38;5011060;28;20390;-75
2023/12/14 06:54:48;;;;;;;5.83;4.00;;;;;;;8.81;79.23;99146.69;5010718;28;20281;-75
2023/12/14 06:57:13;;;;;;;4.23;3.50;;;;;;;8.81;79.35;99157.16;5009211;28;20507;-75
2023/12/14 06:59:39;;;;;;;4.97;3.50;;;;;;;8.80;79.14;99160.72;5011307;28;20707;-73
2023/12/14 07:02:04;;;;;;;6.10;3.47;;;;;;;8.79;79.39;99166.91;5012127;28;20191;-74
2023/12/14 07:04:30;;;;;;;20.40;10.77;;;;;;;8.78;79.30;99170.47;5010048;28;20702;-74
2023/12/14 07:06:55;;;;;;;15.20;9.90;;;;;;;8.78;79.27;99183.56;5011472;28;20226;-76
2023/12/14 07:09:20;;;;;;;7.00;5.87;;;;;;;8.76;79.29;99183.63;5011496;28;20210;-75
2023/12/14 07:11:46;;;;;;;8.57;6.00;;;;;;;8.75;79.37;99197.69;5010702;28;20647;-76
2023/12/14 07:14:12;;;;;;;10.10;6.43;;;;;;;8.74;79.26;99198.59;5009763;28;20199;-76
2023/12/14 07:16:38;;;;;;;7.47;5.78;;;;;;;8.72;79.18;99197.88;5009169;28;20238;-75
2023/12/14 07:19:03;;;;;;;6.50;5.00;;;;;;;8.71;79.29;99211.88;5010395;28;20852;-76
2023/12/14 07:21:29;;;;;;;9.10;5.43;;;;;;;8.69;79.53;99212.91;5008886;28;20227;-76
2023/12/14 07:23:54;;;;;;;8.53;5.47;;;;;;;8.71;79.27;99211.06;5009642;28;20647;-76
2023/12/14 07:26:19;;;;;;;9.90;6.10;;;;;;;8.70;79.37;99214.63;5011054;28;20203;-76
2023/12/14 07:28:45;;;;;;;8.20;5.90;;;;;;;8.70;79.27;99223.31;5008751;28;20226;-75
2023/12/14 07:31:10;;;;;;;9.40;5.63;;;;;;;8.70;79.50;99227.72;5010726;28;20514;-75
2023/12/14 07:33:36;;;;;;;9.13;6.80;;;;;;;8.69;79.27;99229.47;5008974;28;20233;-76
2023/12/14 07:36:01;;;;;;;5.60;5.00;;;;;;;8.70;79.32;99225.09;5009239;28;20581;-75
2023/12/14 07:38:26;;;;;;;5.97;4.80;;;;;;;8.69;79.26;99232.09;5011997;28;20194;-74
2023/12/14 07:40:52;;;;;;;5.03;3.53;;;;;;;8.68;79.10;99234.81;5010338;28;20206;-75
2023/12/14 07:43:18;;;;;;;4.93;3.80;;;;;;;8.69;79.32;99247.78;5009902;28;20205;-76
2023/12/14 07:45:44;;;;;;;3.17;2.70;;;;;;;8.69;79.31;99241.72;5007681;28;20644;-76
2023/12/14 07:48:09;;;;;;;4.27;3.40;;;;;;;8.70;79.06;99243.41;5010265;28;20226;-76
2023/12/14 07:50:35;;;;;;;6.53;4.23;;;;;;;8.72;79.29;99257.22;5010025;28;20453;-76
2023/12/14 07:53:00;;;;;;;3.97;3.63;;;;;;;8.71;79.14;99261.63;4992060;28;20236;-75
2023/12/14 07:55:26;;;;;;;4.23;3.57;;;;;;;8.70;79.10;99269.59;5009129;28;20214;-76
2023/12/14 07:57:51;;;;;;;5.53;4.33;;;;;;;8.68;79.10;99276.69;5010245;28;20320;-76
2023/12/14 08:00:17;;;;;;;5.83;4.00;;;;;;;8.69;79.26;99268.75;5006477;28;20380;-75
2023/12/14 08:02:42;;;;;;;4.67;3.90;;;;;;;8.73;79.20;99279.88;5008143;28;20411;-76
2023/12/14 08:05:09;;;;;;;4.90;3.97;;;;;;;8.76;79.04;99285.75;5010506;28;21016;-75
2023/12/14 08:07:34;;;;;;;5.00;3.30;;;;;;;8.79;78.91;99293.44;5009254;28;20326;-76
2023/12/14 08:10:00;;;;;;;5.03;3.83;;;;;;;8.80;78.82;99296.88;5010635;28;20671;-75
2023/12/14 08:12:25;;;;;;;4.73;3.20;;;;;;;8.82;78.76;99302.88;5009458;28;20190;-76
2023/12/14 08:14:51;;;;;;;5.40;3.60;;;;;;;8.83;78.93;99312.41;5009392;28;20205;-75
2023/12/14 08:17:17;;;;;;;4.20;3.50;;;;;;;8.81;78.58;99315.13;5007830;28;20220;-76
2023/12/14 08:19:43;;;;;;;3.83;2.60;;;;;;;8.80;78.56;99318.72;5010616;28;20686;-76
2023/12/14 08:22:11;;;;;;;4.10;2.75;;;;;;;8.80;78.75;99323.06;5008649;28;20198;-75
2023/12/14 08:24:39;;;;;;;4.47;3.17;;;;;;;8.80;78.79;99323.06;5010788;28;20297;-76
2023/12/14 08:27:04;;;;;;;8.10;2.85;;;;;;;8.79;78.80;99327.47;5008890;28;20283;-75
2023/12/14 08:29:30;;;;;;;7.10;3.70;;;;;;;8.81;78.88;99337.88;5008138;28;20606;-75
2023/12/14 08:31:57;;;;;;;12.10;5.60;;;;;;;8.81;78.69;99340.50;5008780;28;20237;-74
2023/12/14 08:34:24;;;;;;;5.20;4.38;;;;;;;8.82;78.44;99347.41;5015103;28;20298;-73
2023/12/14 08:36:49;;;;;;;8.35;5.40;;;;;;;8.81;78.50;99354.41;5013851;28;20309;-73
2023/12/14 08:39:15;;;;;;;9.03;5.47;;;;;;;8.81;78.69;99357.03;5012995;28;20394;-73
2023/12/14 08:41:41;;;;;;;5.40;4.23;;;;;;;8.83;78.33;99364.78;5015056;28;20734;-74
2023/12/14 08:44:06;;;;;;;4.80;4.40;;;;;;;8.85;78.36;99366.38;5011651;28;20203;-73
2023/12/14 08:46:42;;;;;;;3.63;2.90;;;;;;;8.87;78.39;99371.53;5014231;28;20475;-73
2023/12/14 08:49:07;;;;;;;3.42;2.58;;;;;;;8.88;78.27;99372.38;5013762;28;20220;-75
2023/12/14 08:51:33;;;;;;;3.77;3.47;;;;;;;8.87;78.35;99382.00;5014016;28;20199;-73
2023/12/14 08:53:58;;;;;;;3.13;2.80;;;;;;;8.89;78.21;99379.31;5014212;28;20663;-73
2023/12/14 08:56:23;;;;;;;10.20;6.50;;;;;;;8.89;78.19;99389.78;5013264;28;20671;-73
2023/12/14 08:58:49;;;;;;;16.87;10.07;;;;;;;8.89;78.36;99393.25;5014164;28;20229;-73
2023/12/14 09:01:21;;;;;;;25.33;12.50;;;;;;;8.88;78.30;99398.56;5014952;28;20210;-74
2023/12/14 09:03:47;;;;;;;21.17;10.75;;;;;;;8.86;78.16;99401.31;5013160;28;20514;-74
2023/12/14 09:06:12;;;;;;;13.60;8.00;;;;;;;8.85;78.22;99404.84;5012889;28;20201;-74
2023/12/14 09:08:39;;;;;;;13.77;9.03;;;;;;;8.86;78.28;99409.16;5011500;28;20649;-73
2023/12/14 09:11:04;;;;;;;9.40;6.13;;;;;;;8.84;78.33;99414.47;5013556;28;20436;-74
2023/12/14 09:13:30;;;;;;;7.93;6.07;;;;;;;8.86;78.32;99419.63;5013882;28;20399;-74
2023/12/14 09:15:55;;;;;;;8.70;5.10;;;;;;;8.89;78.13;99427.31;5012561;28;20202;-74
2023/12/14 09:18:22;;;;;;;7.40;4.00;;;;;;;8.87;77.95;99431.78;5013061;28;20210;-75
2023/12/14 09:20:49;;;;;;;7.40;4.07;;;;;;;8.89;78.25;99434.31;5013252;28;20201;-74
2023/12/14 09:23:15;;;;;;;7.65;6.35;;;;;;;8.90;77.98;99442.06;5012393;28;20749;-74
2023/12/14 09:25:41;;;;;;;8.13;6.30;;;;;;;8.93;78.08;99441.88;5011775;28;20209;-74
2023/12/14 09:28:07;;;;;;;16.47;10.10;;;;;;;8.96;78.13;99454.81;5067196;22;20231;-81
2023/12/14 09:30:32;;;;;;;13.95;7.47;;;;;;;8.98;78.01;99450.31;4992396;28;20179;-81
2023/12/14 09:32:58;;;;;;;6.67;5.43;;;;;;;9.02;77.82;99451.84;5008065;28;20385;-81
2023/12/14 09:35:23;;;;;;;6.30;5.10;;;;;;;9.07;77.68;99454.16;5007616;28;20769;-80
2023/12/14 09:37:49;;;;;;;8.93;6.13;;;;;;;9.07;77.55;99462.88;5005815;28;20426;-81
2023/12/14 09:40:16;;;;;;;12.47;5.40;;;;;;;9.11;77.80;99463.53;5010293;28;20203;-81
2023/12/14 09:42:42;;;;;;;8.30;5.13;;;;;;;9.15;77.50;99465.03;5009299;28;20458;-80
2023/12/14 09:45:09;;;;;;;5.63;4.33;;;;;;;9.19;77.59;99473.56;5007157;28;20477;-80
2023/12/14 09:47:36;;;;;;;6.88;4.30;;;;;;;9.23;77.45;99482.91;5004837;28;20473;-80
2023/12/14 09:50:03;;;;;;;5.30;4.25;;;;;;;9.27;77.41;99484.44;5007686;28;20232;-81
2023/12/14 09:52:28;;;;;;;4.10;3.53;;;;;;;9.30;76.91;99489.47;5008069;28;20371;-80
2023/12/14 09:54:54;;;;;;;8.47;4.77;;;;;;;9.31;76.90;99489.38;5006605;28;20439;-80
2023/12/14 09:57:19;;;;;;;6.33;4.17;;;;;;;9.35;76.86;99507.56;5010626;28;20289;-80
2023/12/14 09:59:55;;;;;;;7.70;4.20;;;;;;;9.34;77.00;99500.63;5007392;28;20281;-80
2023/12/14 10:02:27;;;;;;;6.22;3.80;;;;;;;9.36;76.78;99520.56;5006776;28;20195;-80
2023/12/14 10:04:53;;;;;;;5.38;4.40;;;;;;;9.33;76.97;99510.25;5007238;28;20203;-80
2023/12/14 10:07:19;;;;;;;4.37;3.03;;;;;;;9.33;76.80;99526.00;5003298;28;20191;-80
2023/12/14 10:09:45;;;;;;;8.20;4.55;;;;;;;9.31;76.84;99522.59;5005190;28;20215;-80
2023/12/14 10:12:10;;;;;;;4.30;3.83;;;;;;;9.27;76.93;99526.38;5007270;28;20202;-80
2023/12/14 10:14:38;;;;;;;8.10;6.17;;;;;;;9.20;77.17;99519.78;5005833;28;20615;-80
2023/12/14 10:17:21;;;;;;;16.15;8.10;;;;;;;9.17;77.24;99535.69;5006688;28;20594;-80
2023/12/14 10:19:47;;;;;;;11.48;6.65;;;;;;;9.14;77.37;99539.34;5007497;28;20566;-80
2023/12/14 10:22:17;;;;;;;7.60;5.57;;;;;;;9.11;77.52;99531.66;5004994;28;20696;-80
2023/12/14 10:24:49;;;;;;;4.80;3.95;;;;;;;9.09;77.58;99530.91;5003281;28;20278;-80
2023/12/14 10:27:17;;;;;;;6.90;4.80;;;;;;;9.08;77.59;99537.94;5006576;28;20238;-81
2023/12/14 10:29:44;;;;;;;6.60;4.45;;;;;;;9.11;77.58;99546.56;5003885;28;20320;-81
2023/12/14 10:32:11;;;;;;;5.45;4.15;;;;;;;9.14;77.77;99541.13;5005038;28;20611;-80
2023/12/14 10:34:37;;;;;;;5.70;4.72;;;;;;;9.19;77.75;99544.31;5008225;28;20198;-80
2023/12/14 10:37:06;;;;;;;5.03;4.40;;;;;;;9.23;77.70;99551.88;5007327;28;20260;-81
2023/12/14 10:39:35;;;;;;;7.53;4.50;;;;;;;9.29;77.71;99545.47;5006810;28;20442;-80
2023/12/14 10:42:03;;;;;;;6.70;5.15;;;;;;;9.35;77.67;99550.34;5002815;28;20293;-79
2023/12/14 10:44:33;;;;;;;6.53;4.25;;;;;;;9.41;77.33;99555.22;5002043;28;20298;-79
2023/12/14 10:46:58;;;;;;;4.38;3.83;;;;;;;9.45;77.33;99553.25;5001108;28;20214;-79
2023/12/14 10:49:25;;;;;;;6.70;4.90;;;;;;;9.50;77.19;99556.44;4999424;28;20206;-79
2023/12/14 10:51:56;;;;;;;4.07;3.58;;;;;;;9.54;77.15;99565.81;4998250;28;20497;-79
2023/12/14 10:54:24;;;;;;;5.97;3.75;;;;;;;9.55;76.93;99564.03;5001238;28;20198;-79
2023/12/14 10:56:53;;;;;;;5.15;4.13;;;;;;;9.59;77.18;99562.94;4999232;28;20211;-79
2023/12/14 10:59:19;;;;;;;8.20;5.50;;;;;;;9.58;77.01;99569.94;4998121;28;20195;-79
2023/12/14 11:01:44;;;;;;;7.70;4.03;;;;;;;9.57;77.01;99578.75;4998836;28;20233;-79
2023/12/14 11:04:13;;;;;;;6.77;4.00;;;;;;;9.59;77.10;99583.91;4999572;28;20266;-79
2023/12/14 11:06:39;;;;;;;4.80;4.10;;;;;;;9.62;77.12;99586.34;4997242;28;20430;-80
2023/12/14 11:09:07;;;;;;;4.30;3.95;;;;;;;9.65;77.00;99584.38;5000196;28;20338;-79
2023/12/14 11:11:47;;;;;;;6.15;3.95;;;;;;;9.67;77.14;99600.03;5003511;28;20211;-80
2023/12/14 11:14:13;;;;;;;7.80;6.05;;;;;;;9.70;77.01;99597.22;5000694;28;20685;-80
2023/12/14 11:16:46;;;;;;;5.10;3.58;;;;;;;9.72;76.95;99600.56;5002338;28;20702;-80
2023/12/14 11:19:20;;;;;;;6.80;3.78;;;;;;;9.72;77.05;99611.06;5001888;28;20208;-80
2023/12/14 11:21:46;;;;;;;6.15;3.88;;;;;;;9.72;76.80;99609.31;5001714;28;20198;-80
2023/12/14 11:24:12;;;;;;;5.30;4.00;;;;;;;9.75;76.83;99611.72;5003042;28;20201;-80
2023/12/14 11:26:38;;;;;;;6.00;4.68;;;;;;;9.79;76.96;99609.75;5002606;28;20199;-80
2023/12/14 11:29:04;;;;;;;5.97;5.30;;;;;;;9.84;76.72;99618.19;4994418;28;20219;-79
2023/12/14 11:31:30;;;;;;;7.63;5.30;;;;;;;9.91;76.69;99621.28;4989269;28;20740;-80
2023/12/14 11:34:00;;;;;;;6.57;5.40;;;;;;;9.97;76.57;99615.69;4996495;28;20785;-80
2023/12/14 11:36:26;;;;;;;12.27;6.70;;;;;;;10.01;76.13;99622.41;4989933;28;20925;-80